FRA weather

Frankfurt am Main Airport
Frankfurt am Main, Hesse, Germany

Public forecast

Using degrees Celsius for public forecast. Weather courtesy of forecast.io.

METAR (pilot weather report)

Retrieved 2017/06/28 22:20 UTC (0 seconds ago):

EDDF 282220Z 26003KT 190V300 CAVOK 16/14 Q0996 NOSIG

TAF (pilot weather forecast)

Retrieved 2017/06/28 18:27 UTC (4 hours ago):

TAF EDDF 281700Z 2818/2924 23006KT 9999 SCT045 TEMPO 2822/2920 SHRA BKN030CB PROB30 TEMPO 2822/2906 4000 TSRA PROB30 TEMPO 2910/2920 20015G25KT 4000 TSRA